sensor_id;sensor_type;location;lat;lon;timestamp;temperature;humidity
50162;DHT22;36061;48.116;11.612;2022-10-18T00:00:39;12.80;99.90
50162;DHT22;36061;48.116;11.612;2022-10-18T00:03:05;12.80;99.90
50162;DHT22;36061;48.116;11.612;2022-10-18T00:05:31;12.80;99.90
50162;DHT22;36061;48.116;11.612;2022-10-18T00:07:56;12.70;99.90
50162;DHT22;36061;48.116;11.612;2022-10-18T00:10:22;12.70;99.90
50162;DHT22;36061;48.116;11.612;2022-10-18T00:12:51;12.70;99.90
50162;DHT22;36061;48.116;11.612;2022-10-18T00:15:17;12.70;99.90
50162;DHT22;36061;48.116;11.612;2022-10-18T00:17:43;12.70;99.90
50162;DHT22;36061;48.116;11.612;2022-10-18T00:20:10;12.70;99.90
50162;DHT22;36061;48.116;11.612;2022-10-18T00:22:37;12.70;99.90
50162;DHT22;36061;48.116;11.612;2022-10-18T00:25:04;12.70;99.90
50162;DHT22;36061;48.116;11.612;2022-10-18T00:27:31;12.60;99.90
50162;DHT22;36061;48.116;11.612;2022-10-18T00:29:57;12.60;99.90
50162;DHT22;36061;48.116;11.612;2022-10-18T00:32:23;12.60;99.90
50162;DHT22;36061;48.116;11.612;2022-10-18T00:34:49;12.50;99.90
50162;DHT22;36061;48.116;11.612;2022-10-18T00:37:15;12.50;99.90
50162;DHT22;36061;48.116;11.612;2022-10-18T00:39:41;12.50;99.90
50162;DHT22;36061;48.116;11.612;2022-10-18T00:42:08;12.40;99.90
50162;DHT22;36061;48.116;11.612;2022-10-18T00:47:07;12.40;99.90
50162;DHT22;36061;48.116;11.612;2022-10-18T00:49:40;12.40;99.90
50162;DHT22;36061;48.116;11.612;2022-10-18T00:52:11;12.40;99.90
50162;DHT22;36061;48.116;11.612;2022-10-18T00:54:41;12.40;99.90
50162;DHT22;36061;48.116;11.612;2022-10-18T00:57:07;12.30;99.90
50162;DHT22;36061;48.116;11.612;2022-10-18T00:59:34;12.30;99.90
50162;DHT22;36061;48.116;11.612;2022-10-18T01:02:00;12.20;99.90
50162;DHT22;36061;48.116;11.612;2022-10-18T01:04:26;12.20;99.90
50162;DHT22;36061;48.116;11.612;2022-10-18T01:31:52;11.90;99.90
50162;DHT22;36061;48.116;11.612;2022-10-18T01:34:23;11.90;99.90
50162;DHT22;36061;48.116;11.612;2022-10-18T01:36:52;11.90;99.90
50162;DHT22;36061;48.116;11.612;2022-10-18T01:39:24;11.90;99.90
50162;DHT22;36061;48.116;11.612;2022-10-18T01:41:53;11.90;99.90
50162;DHT22;36061;48.116;11.612;2022-10-18T01:44:27;11.90;99.90
50162;DHT22;36061;48.116;11.612;2022-10-18T01:46:55;11.80;99.90
50162;DHT22;36061;48.116;11.612;2022-10-18T01:49:21;11.80;99.90
50162;DHT22;36061;48.116;11.612;2022-10-18T01:51:48;11.80;99.90
50162;DHT22;36061;48.116;11.612;2022-10-18T01:54:20;11.80;99.90
50162;DHT22;36061;48.116;11.612;2022-10-18T01:57:02;11.80;99.90
50162;DHT22;36061;48.116;11.612;2022-10-18T02:05:25;11.70;99.90
50162;DHT22;36061;48.116;11.612;2022-10-18T02:10:40;11.70;99.90
50162;DHT22;36061;48.116;11.612;2022-10-18T02:13:09;11.70;99.90
50162;DHT22;36061;48.116;11.612;2022-10-18T02:15:38;11.70;99.90
50162;DHT22;36061;48.116;11.612;2022-10-18T02:18:11;11.70;99.90
50162;DHT22;36061;48.116;11.612;2022-10-18T02:20:39;11.60;99.90
50162;DHT22;36061;48.116;11.612;2022-10-18T02:23:07;11.60;99.90
50162;DHT22;36061;48.116;11.612;2022-10-18T02:25:34;11.60;99.90
50162;DHT22;36061;48.116;11.612;2022-10-18T02:28:01;11.50;99.90
50162;DHT22;36061;48.116;11.612;2022-10-18T02:30:35;11.40;99.90
50162;DHT22;36061;48.116;11.612;2022-10-18T02:33:16;11.40;99.90
50162;DHT22;36061;48.116;11.612;2022-10-18T02:35:46;11.40;99.90
50162;DHT22;36061;48.116;11.612;2022-10-18T02:38:15;11.40;99.90
50162;DHT22;36061;48.116;11.612;2022-10-18T02:40:42;11.40;99.90
50162;DHT22;36061;48.116;11.612;2022-10-18T02:43:08;11.50;99.90
50162;DHT22;36061;48.116;11.612;2022-10-18T02:45:33;11.40;99.90
50162;DHT22;36061;48.116;11.612;2022-10-18T02:48:00;11.40;99.90
50162;DHT22;36061;48.116;11.612;2022-10-18T02:50:25;11.40;99.90
50162;DHT22;36061;48.116;11.612;2022-10-18T02:52:51;11.30;99.90
50162;DHT22;36061;48.116;11.612;2022-10-18T02:55:17;11.20;99.90
50162;DHT22;36061;48.116;11.612;2022-10-18T02:57:43;11.20;99.90
50162;DHT22;36061;48.116;11.612;2022-10-18T03:00:09;11.30;99.90
50162;DHT22;36061;48.116;11.612;2022-10-18T03:02:35;11.30;99.90
50162;DHT22;36061;48.116;11.612;2022-10-18T03:05:01;11.30;99.90
50162;DHT22;36061;48.116;11.612;2022-10-18T03:07:26;11.20;99.90
50162;DHT22;36061;48.116;11.612;2022-10-18T03:09:52;11.20;99.90
50162;DHT22;36061;48.116;11.612;2022-10-18T03:12:18;11.10;99.90
50162;DHT22;36061;48.116;11.612;2022-10-18T03:14:44;11.10;99.90
50162;DHT22;36061;48.116;11.612;2022-10-18T03:17:09;11.10;99.90
50162;DHT22;36061;48.116;11.612;2022-10-18T03:19:35;11.10;99.90
50162;DHT22;36061;48.116;11.612;2022-10-18T03:22:03;11.10;99.90
50162;DHT22;36061;48.116;11.612;2022-10-18T03:24:29;11.10;99.90
50162;DHT22;36061;48.116;11.612;2022-10-18T03:26:55;11.10;99.90
50162;DHT22;36061;48.116;11.612;2022-10-18T03:29:20;11.10;99.90
50162;DHT22;36061;48.116;11.612;2022-10-18T03:31:46;11.10;99.90
50162;DHT22;36061;48.116;11.612;2022-10-18T03:34:12;11.00;99.90
50162;DHT22;36061;48.116;11.612;2022-10-18T03:36:38;11.00;99.90
50162;DHT22;36061;48.116;11.612;2022-10-18T03:39:05;11.00;99.90
50162;DHT22;36061;48.116;11.612;2022-10-18T03:41:32;11.00;99.90
50162;DHT22;36061;48.116;11.612;2022-10-18T03:43:58;11.00;99.90
50162;DHT22;36061;48.116;11.612;2022-10-18T03:46:23;11.00;99.90
50162;DHT22;36061;48.116;11.612;2022-10-18T03:48:49;11.00;99.90
50162;DHT22;36061;48.116;11.612;2022-10-18T03:51:15;11.10;99.90
50162;DHT22;36061;48.116;11.612;2022-10-18T03:53:40;11.10;99.90
50162;DHT22;36061;48.116;11.612;2022-10-18T03:56:06;11.10;99.90
50162;DHT22;36061;48.116;11.612;2022-10-18T03:58:32;11.10;99.90
50162;DHT22;36061;48.116;11.612;2022-10-18T04:00:58;11.10;99.90
50162;DHT22;36061;48.116;11.612;2022-10-18T04:03:23;11.10;99.90
50162;DHT22;36061;48.116;11.612;2022-10-18T04:05:49;11.10;99.90
50162;DHT22;36061;48.116;11.612;2022-10-18T04:08:16;11.10;99.90
50162;DHT22;36061;48.116;11.612;2022-10-18T04:10:42;11.10;99.90
50162;DHT22;36061;48.116;11.612;2022-10-18T04:13:08;11.10;99.90
50162;DHT22;36061;48.116;11.612;2022-10-18T04:15:34;11.10;99.90
50162;DHT22;36061;48.116;11.612;2022-10-18T04:18:00;11.10;99.90
50162;DHT22;36061;48.116;11.612;2022-10-18T04:20:26;11.10;99.90
50162;DHT22;36061;48.116;11.612;2022-10-18T04:22:52;11.10;99.90
50162;DHT22;36061;48.116;11.612;2022-10-18T04:25:20;11.10;99.90
50162;DHT22;36061;48.116;11.612;2022-10-18T04:27:46;11.10;99.90
50162;DHT22;36061;48.116;11.612;2022-10-18T04:30:12;11.10;99.90
50162;DHT22;36061;48.116;11.612;2022-10-18T04:32:38;11.10;99.90
50162;DHT22;36061;48.116;11.612;2022-10-18T04:35:05;11.10;99.90
50162;DHT22;36061;48.116;11.612;2022-10-18T04:37:32;11.10;99.90
50162;DHT22;36061;48.116;11.612;2022-10-18T04:39:58;11.10;99.90
50162;DHT22;36061;48.116;11.612;2022-10-18T04:42:24;11.10;99.90
50162;DHT22;36061;48.116;11.612;2022-10-18T04:44:50;11.10;99.90
50162;DHT22;36061;48.116;11.612;2022-10-18T04:47:16;11.10;99.90
50162;DHT22;36061;48.116;11.612;2022-10-18T04:49:42;11.10;99.90
50162;DHT22;36061;48.116;11.612;2022-10-18T04:52:08;11.10;99.90
50162;DHT22;36061;48.116;11.612;2022-10-18T04:54:34;11.00;99.90
50162;DHT22;36061;48.116;11.612;2022-10-18T04:57:00;11.10;99.90
50162;DHT22;36061;48.116;11.612;2022-10-18T04:59:26;11.00;99.90
50162;DHT22;36061;48.116;11.612;2022-10-18T05:01:52;11.00;99.90
50162;DHT22;36061;48.116;11.612;2022-10-18T05:04:17;11.00;99.90
50162;DHT22;36061;48.116;11.612;2022-10-18T05:06:43;11.00;99.90
50162;DHT22;36061;48.116;11.612;2022-10-18T05:09:09;11.00;99.90
50162;DHT22;36061;48.116;11.612;2022-10-18T05:11:35;11.00;99.90
50162;DHT22;36061;48.116;11.612;2022-10-18T05:14:00;10.90;99.90
50162;DHT22;36061;48.116;11.612;2022-10-18T05:16:26;10.90;99.90
50162;DHT22;36061;48.116;11.612;2022-10-18T05:18:53;10.90;99.90
50162;DHT22;36061;48.116;11.612;2022-10-18T05:21:18;10.90;99.90
50162;DHT22;36061;48.116;11.612;2022-10-18T05:23:44;10.90;99.90
50162;DHT22;36061;48.116;11.612;2022-10-18T05:26:10;10.90;99.90
50162;DHT22;36061;48.116;11.612;2022-10-18T05:28:36;10.90;99.90
50162;DHT22;36061;48.116;11.612;2022-10-18T05:31:04;10.90;99.90
50162;DHT22;36061;48.116;11.612;2022-10-18T05:33:30;11.00;99.90
50162;DHT22;36061;48.116;11.612;2022-10-18T05:35:57;11.00;99.90
50162;DHT22;36061;48.116;11.612;2022-10-18T05:38:23;11.00;99.90
50162;DHT22;36061;48.116;11.612;2022-10-18T05:40:48;11.00;99.90
50162;DHT22;36061;48.116;11.612;2022-10-18T05:43:14;11.00;99.90
50162;DHT22;36061;48.116;11.612;2022-10-18T05:45:49;10.90;99.90
50162;DHT22;36061;48.116;11.612;2022-10-18T05:48:15;11.00;99.90
50162;DHT22;36061;48.116;11.612;2022-10-18T05:50:42;11.00;99.90
50162;DHT22;36061;48.116;11.612;2022-10-18T05:53:07;11.00;99.90
50162;DHT22;36061;48.116;11.612;2022-10-18T05:55:33;11.10;99.90
50162;DHT22;36061;48.116;11.612;2022-10-18T05:57:59;11.10;99.90
50162;DHT22;36061;48.116;11.612;2022-10-18T06:00:25;11.10;99.90
50162;DHT22;36061;48.116;11.612;2022-10-18T06:02:50;11.20;99.90
50162;DHT22;36061;48.116;11.612;2022-10-18T06:05:16;11.20;99.90
50162;DHT22;36061;48.116;11.612;2022-10-18T06:07:42;11.30;99.90
50162;DHT22;36061;48.116;11.612;2022-10-18T06:10:08;11.40;99.90
50162;DHT22;36061;48.116;11.612;2022-10-18T06:12:34;11.50;99.90
50162;DHT22;36061;48.116;11.612;2022-10-18T06:15:00;11.50;99.90
50162;DHT22;36061;48.116;11.612;2022-10-18T06:17:25;11.60;99.90
50162;DHT22;36061;48.116;11.612;2022-10-18T06:19:51;11.70;99.90
50162;DHT22;36061;48.116;11.612;2022-10-18T06:22:17;11.80;99.90
50162;DHT22;36061;48.116;11.612;2022-10-18T06:24:42;11.90;99.90
50162;DHT22;36061;48.116;11.612;2022-10-18T06:27:08;12.00;99.90
50162;DHT22;36061;48.116;11.612;2022-10-18T06:29:35;12.10;99.90
50162;DHT22;36061;48.116;11.612;2022-10-18T06:32:01;12.20;99.90
50162;DHT22;36061;48.116;11.612;2022-10-18T06:34:27;12.40;99.90
50162;DHT22;36061;48.116;11.612;2022-10-18T06:36:52;12.50;99.90
50162;DHT22;36061;48.116;11.612;2022-10-18T06:39:18;12.60;99.90
50162;DHT22;36061;48.116;11.612;2022-10-18T06:41:44;12.70;99.90
50162;DHT22;36061;48.116;11.612;2022-10-18T06:44:18;12.70;99.90
50162;DHT22;36061;48.116;11.612;2022-10-18T06:46:46;12.80;99.90
50162;DHT22;36061;48.116;11.612;2022-10-18T06:49:12;12.80;99.90
50162;DHT22;36061;48.116;11.612;2022-10-18T06:51:42;12.80;99.90
50162;DHT22;36061;48.116;11.612;2022-10-18T06:54:09;12.80;99.90
50162;DHT22;36061;48.116;11.612;2022-10-18T06:56:35;12.80;99.90
50162;DHT22;36061;48.116;11.612;2022-10-18T06:59:00;12.80;99.90
50162;DHT22;36061;48.116;11.612;2022-10-18T07:01:26;12.80;99.90
50162;DHT22;36061;48.116;11.612;2022-10-18T07:03:55;12.80;99.90
50162;DHT22;36061;48.116;11.612;2022-10-18T07:06:22;12.90;99.90
50162;DHT22;36061;48.116;11.612;2022-10-18T07:08:49;12.90;99.90
50162;DHT22;36061;48.116;11.612;2022-10-18T07:11:17;13.00;99.90
50162;DHT22;36061;48.116;11.612;2022-10-18T07:13:43;13.00;99.90
50162;DHT22;36061;48.116;11.612;2022-10-18T07:16:12;13.10;99.90
50162;DHT22;36061;48.116;11.612;2022-10-18T07:18:41;13.20;99.90
50162;DHT22;36061;48.116;11.612;2022-10-18T07:21:10;13.20;99.90
50162;DHT22;36061;48.116;11.612;2022-10-18T07:23:39;13.40;99.90
50162;DHT22;36061;48.116;11.612;2022-10-18T07:26:25;13.40;99.90
50162;DHT22;36061;48.116;11.612;2022-10-18T07:29:00;13.50;99.90
50162;DHT22;36061;48.116;11.612;2022-10-18T07:31:27;13.60;99.90
50162;DHT22;36061;48.116;11.612;2022-10-18T07:33:53;13.70;99.90
50162;DHT22;36061;48.116;11.612;2022-10-18T07:36:19;13.80;99.90
50162;DHT22;36061;48.116;11.612;2022-10-18T07:38:47;14.00;99.90
50162;DHT22;36061;48.116;11.612;2022-10-18T07:41:13;14.10;99.90
50162;DHT22;36061;48.116;11.612;2022-10-18T07:43:45;14.20;99.90
50162;DHT22;36061;48.116;11.612;2022-10-18T07:46:11;14.30;99.90
50162;DHT22;36061;48.116;11.612;2022-10-18T07:48:37;14.40;99.90
50162;DHT22;36061;48.116;11.612;2022-10-18T07:51:03;14.50;99.90
50162;DHT22;36061;48.116;11.612;2022-10-18T07:53:29;14.60;99.90
50162;DHT22;36061;48.116;11.612;2022-10-18T07:55:59;14.60;99.90
50162;DHT22;36061;48.116;11.612;2022-10-18T07:58:25;14.70;99.90
50162;DHT22;36061;48.116;11.612;2022-10-18T08:00:52;14.70;99.90
50162;DHT22;36061;48.116;11.612;2022-10-18T08:03:18;14.80;99.90
50162;DHT22;36061;48.116;11.612;2022-10-18T08:05:50;14.90;99.90
50162;DHT22;36061;48.116;11.612;2022-10-18T08:08:16;15.00;99.90
50162;DHT22;36061;48.116;11.612;2022-10-18T08:10:42;15.00;99.90
50162;DHT22;36061;48.116;11.612;2022-10-18T08:13:07;15.10;99.90
50162;DHT22;36061;48.116;11.612;2022-10-18T08:15:33;15.20;99.90
50162;DHT22;36061;48.116;11.612;2022-10-18T08:17:59;15.40;99.90
50162;DHT22;36061;48.116;11.612;2022-10-18T08:20:25;15.50;99.90
50162;DHT22;36061;48.116;11.612;2022-10-18T08:22:50;15.60;99.90
50162;DHT22;36061;48.116;11.612;2022-10-18T08:25:17;15.70;99.90
50162;DHT22;36061;48.116;11.612;2022-10-18T08:27:43;15.70;99.90
50162;DHT22;36061;48.116;11.612;2022-10-18T08:30:10;15.80;99.90
50162;DHT22;36061;48.116;11.612;2022-10-18T08:32:36;15.80;99.90
50162;DHT22;36061;48.116;11.612;2022-10-18T08:35:01;15.90;99.90
50162;DHT22;36061;48.116;11.612;2022-10-18T08:37:27;15.90;99.90
50162;DHT22;36061;48.116;11.612;2022-10-18T08:39:53;16.00;99.90
50162;DHT22;36061;48.116;11.612;2022-10-18T08:42:25;15.90;99.90
50162;DHT22;36061;48.116;11.612;2022-10-18T08:44:54;16.00;99.90
50162;DHT22;36061;48.116;11.612;2022-10-18T08:47:26;16.00;99.90
50162;DHT22;36061;48.116;11.612;2022-10-18T08:50:06;16.10;99.90
50162;DHT22;36061;48.116;11.612;2022-10-18T08:55:40;16.30;99.90
50162;DHT22;36061;48.116;11.612;2022-10-18T08:58:26;16.40;99.90
50162;DHT22;36061;48.116;11.612;2022-10-18T09:01:14;16.60;99.90
50162;DHT22;36061;48.116;11.612;2022-10-18T09:06:31;16.90;99.90
50162;DHT22;36061;48.116;11.612;2022-10-18T09:20:25;17.70;99.90
50162;DHT22;36061;48.116;11.612;2022-10-18T09:22:54;17.80;99.90
50162;DHT22;36061;48.116;11.612;2022-10-18T09:27:53;18.00;99.90
50162;DHT22;36061;48.116;11.612;2022-10-18T09:38:16;18.10;99.90
50162;DHT22;36061;48.116;11.612;2022-10-18T09:41:29;18.20;99.90
50162;DHT22;36061;48.116;11.612;2022-10-18T09:46:37;18.40;99.90
50162;DHT22;36061;48.116;11.612;2022-10-18T09:49:29;18.60;99.90
50162;DHT22;36061;48.116;11.612;2022-10-18T09:51:59;18.80;99.90
50162;DHT22;36061;48.116;11.612;2022-10-18T09:54:37;18.90;99.90
50162;DHT22;36061;48.116;11.612;2022-10-18T09:57:20;19.00;99.90
50162;DHT22;36061;48.116;11.612;2022-10-18T09:59:48;19.00;99.90
50162;DHT22;36061;48.116;11.612;2022-10-18T10:02:18;19.00;99.90
50162;DHT22;36061;48.116;11.612;2022-10-18T10:04:45;19.00;99.90
50162;DHT22;36061;48.116;11.612;2022-10-18T10:07:15;19.10;99.90
50162;DHT22;36061;48.116;11.612;2022-10-18T10:09:49;19.30;99.90
50162;DHT22;36061;48.116;11.612;2022-10-18T10:12:34;19.40;99.90
50162;DHT22;36061;48.116;11.612;2022-10-18T10:15:24;19.50;99.90
50162;DHT22;36061;48.116;11.612;2022-10-18T10:18:01;19.50;99.90
50162;DHT22;36061;48.116;11.612;2022-10-18T10:20:34;19.50;99.90
50162;DHT22;36061;48.116;11.612;2022-10-18T10:23:20;19.50;99.90
50162;DHT22;36061;48.116;11.612;2022-10-18T10:25:54;19.50;99.90
50162;DHT22;36061;48.116;11.612;2022-10-18T10:28:22;19.50;99.90
50162;DHT22;36061;48.116;11.612;2022-10-18T10:30:50;19.40;99.90
50162;DHT22;36061;48.116;11.612;2022-10-18T10:33:33;19.40;99.90
50162;DHT22;36061;48.116;11.612;2022-10-18T10:36:20;19.30;99.90
50162;DHT22;36061;48.116;11.612;2022-10-18T10:39:12;19.30;99.90
50162;DHT22;36061;48.116;11.612;2022-10-18T10:41:49;19.30;99.90
50162;DHT22;36061;48.116;11.612;2022-10-18T10:44:24;19.30;99.90
50162;DHT22;36061;48.116;11.612;2022-10-18T10:46:51;19.30;99.90
50162;DHT22;36061;48.116;11.612;2022-10-18T10:49:23;19.30;99.90
50162;DHT22;36061;48.116;11.612;2022-10-18T10:51:58;19.30;99.90
50162;DHT22;36061;48.116;11.612;2022-10-18T10:54:26;19.30;99.90
50162;DHT22;36061;48.116;11.612;2022-10-18T10:57:04;19.40;99.90
50162;DHT22;36061;48.116;11.612;2022-10-18T11:02:31;19.50;99.90
50162;DHT22;36061;48.116;11.612;2022-10-18T11:05:18;19.50;99.90
50162;DHT22;36061;48.116;11.612;2022-10-18T11:07:46;19.60;99.90
50162;DHT22;36061;48.116;11.612;2022-10-18T11:10:17;19.60;99.90
50162;DHT22;36061;48.116;11.612;2022-10-18T11:12:52;19.70;99.90
50162;DHT22;36061;48.116;11.612;2022-10-18T11:15:42;19.70;99.90
50162;DHT22;36061;48.116;11.612;2022-10-18T11:18:55;19.70;99.90
50162;DHT22;36061;48.116;11.612;2022-10-18T11:21:18;19.70;99.90
50162;DHT22;36061;48.116;11.612;2022-10-18T11:23:45;19.80;99.90
50162;DHT22;36061;48.116;11.612;2022-10-18T11:31:26;19.90;99.90
50162;DHT22;36061;48.116;11.612;2022-10-18T11:42:20;20.10;99.90
50162;DHT22;36061;48.116;11.612;2022-10-18T11:50:26;20.30;99.90
50162;DHT22;36061;48.116;11.612;2022-10-18T11:58:40;20.40;99.90
50162;DHT22;36061;48.116;11.612;2022-10-18T12:01:18;20.40;99.90
50162;DHT22;36061;48.116;11.612;2022-10-18T12:06:27;20.40;99.90
50162;DHT22;36061;48.116;11.612;2022-10-18T12:09:00;20.40;99.90
50162;DHT22;36061;48.116;11.612;2022-10-18T12:11:34;20.40;99.90
50162;DHT22;36061;48.116;11.612;2022-10-18T12:14:04;20.40;99.90
50162;DHT22;36061;48.116;11.612;2022-10-18T12:16:36;20.40;99.90
50162;DHT22;36061;48.116;11.612;2022-10-18T12:19:10;20.50;99.90
50162;DHT22;36061;48.116;11.612;2022-10-18T12:21:37;20.50;99.90
50162;DHT22;36061;48.116;11.612;2022-10-18T12:24:19;20.50;99.90
50162;DHT22;36061;48.116;11.612;2022-10-18T12:26:46;20.50;99.90
50162;DHT22;36061;48.116;11.612;2022-10-18T12:29:33;20.50;99.90
50162;DHT22;36061;48.116;11.612;2022-10-18T12:32:23;20.50;99.90
50162;DHT22;36061;48.116;11.612;2022-10-18T12:34:57;20.60;99.90
50162;DHT22;36061;48.116;11.612;2022-10-18T12:37:49;20.60;99.90
50162;DHT22;36061;48.116;11.612;2022-10-18T12:40:40;20.70;99.90
50162;DHT22;36061;48.116;11.612;2022-10-18T12:43:15;20.70;99.90
50162;DHT22;36061;48.116;11.612;2022-10-18T12:45:55;20.70;99.90
50162;DHT22;36061;48.116;11.612;2022-10-18T12:48:39;20.70;99.90
50162;DHT22;36061;48.116;11.612;2022-10-18T12:51:20;20.70;99.90
50162;DHT22;36061;48.116;11.612;2022-10-18T12:53:53;20.80;99.90
50162;DHT22;36061;48.116;11.612;2022-10-18T13:15:43;21.00;99.90
50162;DHT22;36061;48.116;11.612;2022-10-18T13:18:33;21.00;99.90
50162;DHT22;36061;48.116;11.612;2022-10-18T13:23:45;21.00;99.90
50162;DHT22;36061;48.116;11.612;2022-10-18T13:31:48;20.90;99.90
50162;DHT22;36061;48.116;11.612;2022-10-18T13:34:35;21.00;99.90
50162;DHT22;36061;48.116;11.612;2022-10-18T13:37:17;21.00;99.90
50162;DHT22;36061;48.116;11.612;2022-10-18T13:39:44;21.00;99.90
50162;DHT22;36061;48.116;11.612;2022-10-18T13:44:40;21.00;99.90
50162;DHT22;36061;48.116;11.612;2022-10-18T13:47:08;21.00;99.90
50162;DHT22;36061;48.116;11.612;2022-10-18T13:49:55;20.90;99.90
50162;DHT22;36061;48.116;11.612;2022-10-18T14:06:58;21.00;99.90
50162;DHT22;36061;48.116;11.612;2022-10-18T14:09:28;21.10;99.90
50162;DHT22;36061;48.116;11.612;2022-10-18T14:12:15;21.00;99.90
50162;DHT22;36061;48.116;11.612;2022-10-18T14:15:07;21.00;99.90
50162;DHT22;36061;48.116;11.612;2022-10-18T14:17:38;21.00;99.90
50162;DHT22;36061;48.116;11.612;2022-10-18T14:22:48;20.90;99.90
50162;DHT22;36061;48.116;11.612;2022-10-18T14:27:45;20.80;99.90
50162;DHT22;36061;48.116;11.612;2022-10-18T14:30:17;20.70;99.90
50162;DHT22;36061;48.116;11.612;2022-10-18T14:32:52;20.60;99.90
50162;DHT22;36061;48.116;11.612;2022-10-18T14:37:47;20.50;99.90
50162;DHT22;36061;48.116;11.612;2022-10-18T14:40:38;20.50;99.90
50162;DHT22;36061;48.116;11.612;2022-10-18T14:43:12;20.40;99.90
50162;DHT22;36061;48.116;11.612;2022-10-18T14:45:39;20.40;99.90
50162;DHT22;36061;48.116;11.612;2022-10-18T14:48:25;20.40;99.90
50162;DHT22;36061;48.116;11.612;2022-10-18T14:50:56;20.30;99.90
50162;DHT22;36061;48.116;11.612;2022-10-18T14:53:27;20.30;99.90
50162;DHT22;36061;48.116;11.612;2022-10-18T14:55:58;20.20;99.90
50162;DHT22;36061;48.116;11.612;2022-10-18T14:58:25;20.20;99.90
50162;DHT22;36061;48.116;11.612;2022-10-18T15:00:51;20.20;99.90
50162;DHT22;36061;48.116;11.612;2022-10-18T15:03:19;20.20;99.90
50162;DHT22;36061;48.116;11.612;2022-10-18T15:06:14;20.20;99.90
50162;DHT22;36061;48.116;11.612;2022-10-18T15:08:41;20.20;99.90
50162;DHT22;36061;48.116;11.612;2022-10-18T15:11:07;20.10;99.90
50162;DHT22;36061;48.116;11.612;2022-10-18T15:13:40;20.10;99.90
50162;DHT22;36061;48.116;11.612;2022-10-18T15:16:14;20.00;99.90
50162;DHT22;36061;48.116;11.612;2022-10-18T15:18:40;20.00;99.90
50162;DHT22;36061;48.116;11.612;2022-10-18T15:21:22;20.00;99.90
50162;DHT22;36061;48.116;11.612;2022-10-18T15:23:49;20.00;99.90
50162;DHT22;36061;48.116;11.612;2022-10-18T15:26:25;19.90;99.90
50162;DHT22;36061;48.116;11.612;2022-10-18T15:28:54;19.80;99.90
50162;DHT22;36061;48.116;11.612;2022-10-18T15:33:52;19.80;99.90
50162;DHT22;36061;48.116;11.612;2022-10-18T15:36:29;19.90;99.90
50162;DHT22;36061;48.116;11.612;2022-10-18T15:41:44;19.80;99.90
50162;DHT22;36061;48.116;11.612;2022-10-18T15:44:31;19.70;99.90
50162;DHT22;36061;48.116;11.612;2022-10-18T15:54:35;19.60;99.90
50162;DHT22;36061;48.116;11.612;2022-10-18T15:57:08;19.60;99.90
50162;DHT22;36061;48.116;11.612;2022-10-18T15:59:34;19.60;99.90
50162;DHT22;36061;48.116;11.612;2022-10-18T16:02:02;19.50;99.90
50162;DHT22;36061;48.116;11.612;2022-10-18T16:04:30;19.50;99.90
50162;DHT22;36061;48.116;11.612;2022-10-18T16:06:57;19.50;99.90
50162;DHT22;36061;48.116;11.612;2022-10-18T16:09:25;19.40;99.90
50162;DHT22;36061;48.116;11.612;2022-10-18T16:11:51;19.40;99.90
50162;DHT22;36061;48.116;11.612;2022-10-18T16:14:18;19.40;99.90
50162;DHT22;36061;48.116;11.612;2022-10-18T16:16:44;19.40;99.90
50162;DHT22;36061;48.116;11.612;2022-10-18T16:19:15;19.40;99.90
50162;DHT22;36061;48.116;11.612;2022-10-18T16:21:43;19.30;99.90
50162;DHT22;36061;48.116;11.612;2022-10-18T16:24:09;19.30;99.90
50162;DHT22;36061;48.116;11.612;2022-10-18T16:26:35;19.20;99.90
50162;DHT22;36061;48.116;11.612;2022-10-18T16:29:02;19.20;99.90
50162;DHT22;36061;48.116;11.612;2022-10-18T16:31:31;19.10;99.90
50162;DHT22;36061;48.116;11.612;2022-10-18T16:33:58;19.10;99.90
50162;DHT22;36061;48.116;11.612;2022-10-18T16:36:30;19.10;99.90
50162;DHT22;36061;48.116;11.612;2022-10-18T16:38:57;19.00;99.90
50162;DHT22;36061;48.116;11.612;2022-10-18T16:41:25;19.00;99.90
50162;DHT22;36061;48.116;11.612;2022-10-18T16:43:51;19.00;99.90
50162;DHT22;36061;48.116;11.612;2022-10-18T16:46:19;18.90;99.90
50162;DHT22;36061;48.116;11.612;2022-10-18T16:48:46;18.90;99.90
50162;DHT22;36061;48.116;11.612;2022-10-18T16:51:12;18.80;99.90
50162;DHT22;36061;48.116;11.612;2022-10-18T16:53:38;18.70;99.90
50162;DHT22;36061;48.116;11.612;2022-10-18T16:56:06;18.60;99.90
50162;DHT22;36061;48.116;11.612;2022-10-18T16:58:36;18.60;99.90
50162;DHT22;36061;48.116;11.612;2022-10-18T17:01:01;18.50;99.90
50162;DHT22;36061;48.116;11.612;2022-10-18T17:03:27;18.40;99.90
50162;DHT22;36061;48.116;11.612;2022-10-18T17:05:53;18.40;99.90
50162;DHT22;36061;48.116;11.612;2022-10-18T17:08:24;18.30;99.90
50162;DHT22;36061;48.116;11.612;2022-10-18T17:10:53;18.20;99.90
50162;DHT22;36061;48.116;11.612;2022-10-18T17:13:20;18.10;99.90
50162;DHT22;36061;48.116;11.612;2022-10-18T17:15:47;18.10;99.90
50162;DHT22;36061;48.116;11.612;2022-10-18T17:18:16;18.00;99.90
50162;DHT22;36061;48.116;11.612;2022-10-18T17:20:43;17.90;99.90
50162;DHT22;36061;48.116;11.612;2022-10-18T17:23:09;17.80;99.90
50162;DHT22;36061;48.116;11.612;2022-10-18T17:25:39;17.80;99.90
50162;DHT22;36061;48.116;11.612;2022-10-18T17:28:11;17.70;99.90
50162;DHT22;36061;48.116;11.612;2022-10-18T17:30:37;17.70;99.90
50162;DHT22;36061;48.116;11.612;2022-10-18T17:33:04;17.60;99.90
50162;DHT22;36061;48.116;11.612;2022-10-18T17:35:30;17.60;99.90
50162;DHT22;36061;48.116;11.612;2022-10-18T17:37:55;17.50;99.90
50162;DHT22;36061;48.116;11.612;2022-10-18T17:40:21;17.50;99.90
50162;DHT22;36061;48.116;11.612;2022-10-18T17:42:52;17.40;99.90
50162;DHT22;36061;48.116;11.612;2022-10-18T17:45:19;17.40;99.90
50162;DHT22;36061;48.116;11.612;2022-10-18T17:47:45;17.40;99.90
50162;DHT22;36061;48.116;11.612;2022-10-18T17:50:11;17.40;99.90
50162;DHT22;36061;48.116;11.612;2022-10-18T17:52:46;17.30;99.90
50162;DHT22;36061;48.116;11.612;2022-10-18T17:55:13;17.30;99.90
50162;DHT22;36061;48.116;11.612;2022-10-18T17:57:40;17.30;99.90
50162;DHT22;36061;48.116;11.612;2022-10-18T18:00:08;17.20;99.90
50162;DHT22;36061;48.116;11.612;2022-10-18T18:02:38;17.20;99.90
50162;DHT22;36061;48.116;11.612;2022-10-18T18:05:04;17.10;99.90
50162;DHT22;36061;48.116;11.612;2022-10-18T18:07:30;17.10;99.90
50162;DHT22;36061;48.116;11.612;2022-10-18T18:09:56;17.10;99.90
50162;DHT22;36061;48.116;11.612;2022-10-18T18:12:22;17.10;99.90